Time;durP1;ratioP1;P1;durP2;ratioP2;P2;SDS_P1;SDS_P2;PMS_P1;PMS_P2;Temp;Humidity;BMP_temperature;BMP_pressure;BME280_temperature;BME280_humidity;BME280_pressure;Samples;Min_cycle;Max_cycle;Signal;HPM_P1;HPM_P2
2023/05/22 00:01:44;;;;;;;;;;;;;;;9.84;100.00;99564.96;109554;1251;76921;-63
2023/05/22 00:04:12;;;;;;;;;;;;;;;9.75;100.00;99562.73;109624;1251;70414;-63
2023/05/22 00:06:42;;;;;;;;;;;;;;;9.64;100.00;99563.56;109572;1251;74546;-63
2023/05/22 00:09:09;;;;;;;;;;;;;;;9.54;100.00;99564.30;109477;1253;61280;-63
2023/05/22 00:11:35;;;;;;;;;;;;;;;9.45;100.00;99562.11;109480;1253;59189;-63
2023/05/22 00:14:02;;;;;;;;;;;;;;;9.33;100.00;99561.34;109524;1251;76711;-63
2023/05/22 00:16:29;;;;;;;;;;;;;;;9.26;100.00;99558.42;109577;1251;66907;-64
2023/05/22 00:18:56;;;;;;;;;;;;;;;9.24;100.00;99556.69;109643;1251;71347;-63
2023/05/22 00:21:23;;;;;;;;;;;;;;;9.25;100.00;99554.80;109479;1251;61824;-62
2023/05/22 00:23:50;;;;;;;;;;;;;;;9.26;100.00;99554.54;109610;1251;59508;-63
2023/05/22 00:26:16;;;;;;;;;;;;;;;9.24;100.00;99551.79;109537;1251;75516;-62
2023/05/22 00:28:43;;;;;;;;;;;;;;;9.19;100.00;99554.35;109429;1254;70354;-62
2023/05/22 00:31:10;;;;;;;;;;;;;;;9.14;100.00;99554.37;109588;1251;71397;-63
2023/05/22 00:33:37;;;;;;;;;;;;;;;9.07;100.00;99549.68;109546;1251;61060;-62
2023/05/22 00:36:04;;;;;;;;;;;;;;;8.99;100.00;99547.80;109424;1253;58906;-62
2023/05/22 00:38:31;;;;;;;;;;;;;;;8.93;100.00;99546.55;109606;1251;76051;-63
2023/05/22 00:40:59;;;;;;;;;;;;;;;8.88;100.00;99546.34;109636;1251;67482;-62
2023/05/22 00:43:26;;;;;;;;;;;;;;;8.84;100.00;99546.75;109509;1251;75086;-62
2023/05/22 00:45:55;;;;;;;;;;;;;;;8.80;100.00;99545.42;109521;1254;63958;-63
2023/05/22 00:48:22;;;;;;;;;;;;;;;8.78;100.00;99546.55;109545;1251;61092;-63
2023/05/22 00:50:49;;;;;;;;;;;;;;;8.76;100.00;99545.15;109491;1251;75681;-63
2023/05/22 00:53:17;;;;;;;;;;;;;;;8.78;100.00;99547.15;109517;1251;67413;-61
2023/05/22 00:55:44;;;;;;;;;;;;;;;8.83;100.00;99542.56;109528;1253;74690;-62
2023/05/22 00:58:13;;;;;;;;;;;;;;;8.89;100.00;99538.65;109387;1253;63773;-62
2023/05/22 01:00:40;;;;;;;;;;;;;;;8.94;100.00;99536.19;109341;1256;60598;-62
2023/05/22 01:03:08;;;;;;;;;;;;;;;8.98;100.00;99538.37;109405;1253;73301;-62
2023/05/22 01:05:38;;;;;;;;;;;;;;;9.00;100.00;99539.02;109594;1252;69468;-62
2023/05/22 01:08:06;;;;;;;;;;;;;;;9.01;100.00;99539.14;109332;1253;167456;-62
2023/05/22 01:10:33;;;;;;;;;;;;;;;9.02;100.00;99537.95;109513;1254;60214;-63
2023/05/22 01:13:03;;;;;;;;;;;;;;;9.05;100.00;99539.83;109368;1253;62298;-63
2023/05/22 01:15:31;;;;;;;;;;;;;;;9.07;100.00;99539.77;109570;1252;75549;-62
2023/05/22 01:18:21;;;;;;;;;;;;;;;9.08;100.00;99541.16;109443;1252;67813;-63
2023/05/22 01:21:20;;;;;;;;;;;;;;;9.12;100.00;99539.63;109205;1253;73956;-63
2023/05/22 01:24:10;;;;;;;;;;;;;;;9.15;100.00;99536.38;108991;1254;63993;-63
2023/05/22 01:26:43;;;;;;;;;;;;;;;9.18;100.00;99537.36;109574;1253;61320;-63
2023/05/22 01:29:14;;;;;;;;;;;;;;;9.20;100.00;99535.28;109439;1252;74782;-63
2023/05/22 01:31:42;;;;;;;;;;;;;;;9.23;100.00;99539.77;109556;1253;67149;-63
2023/05/22 01:34:09;;;;;;;;;;;;;;;9.26;100.00;99537.86;109446;1253;72895;-64
2023/05/22 01:36:38;;;;;;;;;;;;;;;9.30;100.00;99536.05;109554;1252;61224;-63
2023/05/22 01:39:07;;;;;;;;;;;;;;;9.31;100.00;99535.02;109374;1253;59118;-64
2023/05/22 01:41:34;;;;;;;;;;;;;;;9.29;100.00;99537.70;109545;1253;75520;-63
2023/05/22 01:44:02;;;;;;;;;;;;;;;9.23;100.00;99535.36;109479;1253;69390;-64
2023/05/22 01:46:29;;;;;;;;;;;;;;;9.20;100.00;99541.35;109484;1253;71821;-64
2023/05/22 01:48:56;;;;;;;;;;;;;;;9.20;100.00;99538.59;109550;1253;60965;-64
2023/05/22 01:51:27;;;;;;;;;;;;;;;9.15;100.00;99536.22;109485;1253;60491;-64
2023/05/22 01:53:58;;;;;;;;;;;;;;;9.05;100.00;99538.56;109427;1252;74584;-64
2023/05/22 01:56:31;;;;;;;;;;;;;;;8.90;100.00;99539.36;109596;1253;70343;-63
2023/05/22 01:59:01;;;;;;;;;;;;;;;8.77;100.00;99541.44;109367;1253;71681;-64
2023/05/22 02:01:28;;;;;;;;;;;;;;;8.63;100.00;99543.38;109489;1253;61319;-63
2023/05/22 02:03:55;;;;;;;;;;;;;;;8.53;100.00;99545.00;109393;1255;60123;-63
2023/05/22 02:06:24;;;;;;;;;;;;;;;8.49;100.00;99543.05;109491;1252;76973;-64
2023/05/22 02:08:51;;;;;;;;;;;;;;;8.49;100.00;99543.84;109514;1253;69459;-62
2023/05/22 02:11:18;;;;;;;;;;;;;;;8.48;100.00;99542.45;109490;1253;74931;-63
2023/05/22 02:13:47;;;;;;;;;;;;;;;8.51;100.00;99546.75;109459;1253;60065;-62
2023/05/22 02:16:14;;;;;;;;;;;;;;;8.57;100.00;99547.41;109595;1253;60722;-62
2023/05/22 02:18:42;;;;;;;;;;;;;;;8.61;100.00;99546.12;109421;1253;76056;-63
2023/05/22 02:21:09;;;;;;;;;;;;;;;8.62;100.00;99547.78;109411;1253;69407;-63
2023/05/22 02:23:36;;;;;;;;;;;;;;;8.59;100.00;99545.77;109577;1253;73665;-63
2023/05/22 02:26:04;;;;;;;;;;;;;;;8.54;100.00;99547.34;109537;1253;61664;-62
2023/05/22 02:28:30;;;;;;;;;;;;;;;8.49;100.00;99546.09;109486;1253;59998;-62
2023/05/22 02:30:58;;;;;;;;;;;;;;;8.45;100.00;99543.31;109412;1253;75511;-63
2023/05/22 02:33:25;;;;;;;;;;;;;;;8.45;100.00;99544.92;109581;1253;69081;-63
2023/05/22 02:35:52;;;;;;;;;;;;;;;8.50;100.00;99547.59;109404;1254;74123;-64
2023/05/22 02:38:19;;;;;;;;;;;;;;;8.59;100.00;99547.92;109526;1252;59949;-64
2023/05/22 02:40:46;;;;;;;;;;;;;;;8.70;100.00;99547.69;109418;1253;61416;-62
2023/05/22 02:43:13;;;;;;;;;;;;;;;8.79;100.00;99549.17;109582;1253;77191;-63
2023/05/22 02:45:40;;;;;;;;;;;;;;;8.87;100.00;99546.14;109401;1253;68416;-63
2023/05/22 02:48:06;;;;;;;;;;;;;;;8.96;100.00;99541.64;109448;1253;74709;-62
2023/05/22 02:50:33;;;;;;;;;;;;;;;9.07;100.00;99542.52;109424;1253;63917;-63
2023/05/22 02:53:00;;;;;;;;;;;;;;;9.17;100.00;99546.08;109407;1253;60100;-62
2023/05/22 02:55:27;;;;;;;;;;;;;;;9.27;100.00;99544.02;109415;1253;76802;-62
2023/05/22 02:57:54;;;;;;;;;;;;;;;9.39;100.00;99541.32;109542;1253;68200;-63
2023/05/22 03:00:21;;;;;;;;;;;;;;;9.53;100.00;99539.55;109544;1253;74301;-63
2023/05/22 03:02:48;;;;;;;;;;;;;;;9.72;100.00;99541.44;109398;1253;62284;-63
2023/05/22 03:05:16;;;;;;;;;;;;;;;9.92;100.00;99544.92;109425;1253;60954;-63
2023/05/22 03:07:44;;;;;;;;;;;;;;;10.15;100.00;99546.71;109511;1253;76084;-63
2023/05/22 03:10:14;;;;;;;;;;;;;;;10.36;100.00;99543.56;109534;1252;67266;-62
2023/05/22 03:12:41;;;;;;;;;;;;;;;10.56;100.00;99544.88;109561;1253;73207;-62
2023/05/22 03:15:08;;;;;;;;;;;;;;;10.75;100.00;99541.91;109370;1252;63587;-63
2023/05/22 03:17:35;;;;;;;;;;;;;;;10.96;100.00;99538.42;109511;1252;60950;-62
2023/05/22 03:20:04;;;;;;;;;;;;;;;11.21;100.00;99533.98;109582;1252;74863;-63
2023/05/22 03:22:31;;;;;;;;;;;;;;;11.49;100.00;99527.98;109452;1252;66880;-63
2023/05/22 03:24:57;;;;;;;;;;;;;;;11.78;100.00;99525.54;109555;1253;73842;-63
2023/05/22 03:27:24;;;;;;;;;;;;;;;12.06;100.00;99520.41;109391;1252;59589;-63
2023/05/22 03:29:51;;;;;;;;;;;;;;;12.33;100.00;99523.09;109555;1252;58925;-63
2023/05/22 03:32:19;;;;;;;;;;;;;;;12.56;100.00;99520.16;109419;1254;75444;-63
2023/05/22 03:34:45;;;;;;;;;;;;;;;12.78;100.00;99518.00;109371;1253;68550;-64
2023/05/22 03:37:12;;;;;;;;;;;;;;;13.00;100.00;99520.16;109397;1253;74912;-63
2023/05/22 03:39:39;;;;;;;;;;;;;;;13.22;100.00;99514.65;109513;1253;61748;-61
2023/05/22 03:42:16;;;;;;;;;;;;;;;13.49;100.00;99514.16;109510;1253;60669;-64
2023/05/22 03:44:43;;;;;;;;;;;;;;;13.77;100.00;99514.45;109550;1253;75085;-63
2023/05/22 03:47:10;;;;;;;;;;;;;;;14.03;100.00;99516.45;109434;1253;66746;-64
2023/05/22 03:49:37;;;;;;;;;;;;;;;14.34;100.00;99514.90;109398;1252;74598;-65
2023/05/22 03:52:04;;;;;;;;;;;;;;;14.66;100.00;99513.64;109488;1253;59623;-66
2023/05/22 03:54:31;;;;;;;;;;;;;;;14.95;100.00;99508.97;109569;1252;59406;-63
2023/05/22 03:56:58;;;;;;;;;;;;;;;15.24;100.00;99512.11;109567;1253;75345;-65
2023/05/22 03:59:24;;;;;;;;;;;;;;;15.50;100.00;99507.64;109546;1253;67987;-66
2023/05/22 04:01:51;;;;;;;;;;;;;;;15.79;100.00;99509.86;109523;1253;71310;-66
2023/05/22 04:04:18;;;;;;;;;;;;;;;16.12;100.00;99504.68;109532;1252;61279;-66
2023/05/22 04:06:45;;;;;;;;;;;;;;;16.46;100.00;99498.84;109559;1252;60388;-64
2023/05/22 04:09:12;;;;;;;;;;;;;;;16.76;100.00;99498.65;109618;1252;76423;-64
2023/05/22 04:11:39;;;;;;;;;;;;;;;17.06;100.00;99496.60;109496;1252;69441;-65
2023/05/22 04:14:06;;;;;;;;;;;;;;;17.34;99.93;99492.09;109578;1252;74689;-65
2023/05/22 04:16:33;;;;;;;;;;;;;;;17.62;97.69;99491.65;109531;1253;58907;-64
2023/05/22 04:19:02;;;;;;;;;;;;;;;17.90;94.54;99491.15;109489;1252;59944;-65
2023/05/22 04:21:32;;;;;;;;;;;;;;;18.19;93.21;99488.88;109553;1253;77003;-64
2023/05/22 04:24:00;;;;;;;;;;;;;;;18.51;89.91;99486.39;109531;1253;68803;-65
2023/05/22 04:26:30;;;;;;;;;;;;;;;18.79;87.56;99483.56;109511;1253;74768;-64
2023/05/22 04:28:57;;;;;;;;;;;;;;;19.09;85.08;99484.94;109495;1253;61328;-64
2023/05/22 04:31:26;;;;;;;;;;;;;;;19.35;82.76;99484.63;109580;1252;60784;-64
2023/05/22 04:33:54;;;;;;;;;;;;;;;19.60;80.69;99485.45;109466;1252;76430;-64
2023/05/22 04:36:24;;;;;;;;;;;;;;;19.85;78.63;99482.81;109521;1253;67856;-66
2023/05/22 04:38:51;;;;;;;;;;;;;;;20.11;76.70;99482.20;109556;1252;73905;-65
2023/05/22 04:41:21;;;;;;;;;;;;;;;20.40;74.39;99480.61;109465;1253;61600;-63
2023/05/22 04:43:51;;;;;;;;;;;;;;;20.67;71.44;99481.47;109366;1253;61505;-65
2023/05/22 04:46:18;;;;;;;;;;;;;;;20.91;69.25;99482.02;109320;1253;75233;-65
2023/05/22 04:48:46;;;;;;;;;;;;;;;21.19;67.07;99481.80;109395;1252;68928;-66
2023/05/22 04:51:14;;;;;;;;;;;;;;;21.49;66.91;99483.44;109192;1253;71724;-65
2023/05/22 04:53:41;;;;;;;;;;;;;;;21.79;65.81;99478.67;109326;1253;61028;-65
2023/05/22 04:56:08;;;;;;;;;;;;;;;22.10;65.49;99479.57;109365;1252;61713;-66
2023/05/22 04:58:36;;;;;;;;;;;;;;;22.42;64.02;99476.42;109352;1252;75293;-65
2023/05/22 05:01:04;;;;;;;;;;;;;;;22.71;61.84;99473.22;109452;1254;67942;-64
2023/05/22 05:03:31;;;;;;;;;;;;;;;23.00;59.28;99479.91;109218;1253;71164;-64
2023/05/22 05:05:59;;;;;;;;;;;;;;;23.22;57.96;99484.02;109410;1252;59963;-67
2023/05/22 05:08:26;;;;;;;;;;;;;;;23.42;57.10;99481.52;109222;1253;59104;-65
2023/05/22 05:10:52;;;;;;;;;;;;;;;23.71;56.97;99482.57;109323;1253;73704;-69
2023/05/22 05:13:19;;;;;;;;;;;;;;;23.99;54.60;99480.59;109358;1253;69225;-65
2023/05/22 05:15:46;;;;;;;;;;;;;;;24.23;52.87;99485.13;109237;1252;73112;-67
2023/05/22 05:18:13;;;;;;;;;;;;;;;24.51;53.08;99484.32;109359;1253;61250;-68
2023/05/22 05:20:41;;;;;;;;;;;;;;;24.85;51.06;99482.52;109387;1253;60303;-65
2023/05/22 05:23:09;;;;;;;;;;;;;;;25.13;48.06;99489.60;109324;1252;75251;-65
2023/05/22 05:25:39;;;;;;;;;;;;;;;25.28;45.75;99489.94;109381;1253;68262;-60
2023/05/22 05:28:09;;;;;;;;;;;;;;;25.33;44.43;99489.64;109302;1253;71879;-62
2023/05/22 05:30:37;;;;;;;;;;;;;;;25.36;44.19;99493.69;109533;1253;62459;-63
2023/05/22 05:33:10;;;;;;;;;;;;;;;25.47;44.99;99488.02;109343;1253;61176;-63
2023/05/22 05:35:57;;;;;;;;;;;;;;;25.75;44.21;99486.71;109413;1253;76000;-60
2023/05/22 05:38:24;;;;;;;;;;;;;;;26.04;43.50;99488.09;109401;1253;68544;-63
2023/05/22 05:40:51;;;;;;;;;;;;;;;26.34;41.83;99484.42;109359;1253;73585;-64
2023/05/22 05:43:19;;;;;;;;;;;;;;;26.50;39.70;99488.40;109382;1256;61026;-63
2023/05/22 05:45:48;;;;;;;;;;;;;;;26.61;38.99;99483.21;109456;1253;58946;-63
2023/05/22 05:48:15;;;;;;;;;;;;;;;26.68;38.54;99483.47;109513;1252;74957;-63
2023/05/22 05:50:44;;;;;;;;;;;;;;;26.75;37.82;99483.91;109575;1253;68340;-62
2023/05/22 05:53:11;;;;;;;;;;;;;;;26.82;36.72;99481.67;109433;1253;72169;-66
2023/05/22 05:55:41;;;;;;;;;;;;;;;26.84;36.55;99479.82;109515;1252;60746;-67
2023/05/22 05:58:08;;;;;;;;;;;;;;;26.93;36.22;99478.05;109542;1253;58980;-65
2023/05/22 06:00:41;;;;;;;;;;;;;;;27.03;35.97;99475.52;109323;1253;76482;-63
2023/05/22 06:03:09;;;;;;;;;;;;;;;27.19;35.79;99481.36;109292;1253;68848;-65
2023/05/22 06:05:50;;;;;;;;;;;;;;;27.37;35.09;99484.98;109341;1254;72813;-65
2023/05/22 06:08:22;;;;;;;;;;;;;;;27.52;35.03;99478.42;109423;1253;60476;-64
2023/05/22 06:10:49;;;;;;;;;;;;;;;27.67;34.37;99478.29;109472;1253;61957;-64
2023/05/22 06:13:30;;;;;;;;;;;;;;;27.83;33.74;99476.56;109401;1252;74756;-64
2023/05/22 06:15:57;;;;;;;;;;;;;;;27.94;32.50;99472.55;109280;1253;69679;-64
2023/05/22 06:18:28;;;;;;;;;;;;;;;27.97;32.95;99473.78;109425;1253;73723;-65
2023/05/22 06:20:57;;;;;;;;;;;;;;;28.09;31.80;99472.20;109409;1253;61356;-64
2023/05/22 06:23:24;;;;;;;;;;;;;;;28.31;31.10;99468.55;109314;1253;59032;-65
2023/05/22 06:25:52;;;;;;;;;;;;;;;28.49;29.14;99473.73;109294;1253;74607;-65
2023/05/22 06:28:20;;;;;;;;;;;;;;;28.50;29.19;99471.92;109229;1253;69389;-65
2023/05/22 06:30:47;;;;;;;;;;;;;;;28.57;29.33;99472.69;109265;1253;74105;-62
2023/05/22 06:33:16;;;;;;;;;;;;;;;28.66;28.58;99472.80;109405;1253;60473;-66
2023/05/22 06:35:43;;;;;;;;;;;;;;;28.74;28.76;99467.89;109286;1253;61475;-64
2023/05/22 06:38:10;;;;;;;;;;;;;;;28.86;28.57;99469.48;109288;1254;76709;-65
2023/05/22 06:40:38;;;;;;;;;;;;;;;28.98;27.72;99467.37;109260;1253;68869;-64
2023/05/22 06:43:11;;;;;;;;;;;;;;;29.08;27.64;99467.04;109472;1253;74206;-64
2023/05/22 06:45:45;;;;;;;;;;;;;;;29.26;27.57;99467.73;109308;1253;61518;-65
2023/05/22 06:48:12;;;;;;;;;;;;;;;29.46;26.18;99470.07;109430;1253;60992;-66
2023/05/22 06:50:50;;;;;;;;;;;;;;;29.47;25.79;99463.64;109379;1253;76010;-67
2023/05/22 06:53:16;;;;;;;;;;;;;;;29.36;25.81;99463.83;109328;1253;68526;-63
2023/05/22 06:55:43;;;;;;;;;;;;;;;29.29;25.43;99463.69;109292;1253;73102;-64
2023/05/22 06:58:12;;;;;;;;;;;;;;;29.26;26.11;99461.65;109304;1253;59179;-65
2023/05/22 07:00:39;;;;;;;;;;;;;;;29.43;25.38;99464.68;109251;1253;61354;-63
2023/05/22 07:03:14;;;;;;;;;;;;;;;29.55;24.59;99460.30;109287;1253;75828;-64
2023/05/22 07:06:10;;;;;;;;;;;;;;;29.71;25.04;99458.54;108977;1253;70112;-65
2023/05/22 07:08:38;;;;;;;;;;;;;;;29.88;24.78;99455.73;109346;1253;71839;-64
2023/05/22 07:11:06;;;;;;;;;;;;;;;30.00;24.11;99456.38;109170;1253;60413;-64
2023/05/22 07:13:33;;;;;;;;;;;;;;;29.98;24.13;99451.31;109324;1253;61466;-63
2023/05/22 07:16:00;;;;;;;;;;;;;;;29.92;24.22;99456.01;109351;1252;73400;-62
2023/05/22 07:18:27;;;;;;;;;;;;;;;29.91;23.96;99451.84;109500;1254;67505;-61
2023/05/22 07:20:53;;;;;;;;;;;;;;;29.92;24.31;99445.80;109468;1253;74907;-61
2023/05/22 07:23:21;;;;;;;;;;;;;;;30.11;24.91;99448.52;109305;1253;62866;-61
2023/05/22 07:25:51;;;;;;;;;;;;;;;30.30;24.04;99444.14;109317;1253;59209;-62
2023/05/22 07:28:19;;;;;;;;;;;;;;;30.38;24.13;99441.84;109336;1257;76731;-62
2023/05/22 07:30:51;;;;;;;;;;;;;;;30.59;24.48;99442.95;109152;1253;67923;-63
2023/05/22 07:33:18;;;;;;;;;;;;;;;30.93;24.23;99441.90;109187;1253;75647;-61
2023/05/22 07:35:45;;;;;;;;;;;;;;;31.14;23.74;99439.18;109225;1253;61852;-64
2023/05/22 07:38:12;;;;;;;;;;;;;;;31.22;23.76;99436.77;109302;1253;58973;-63
2023/05/22 07:40:44;;;;;;;;;;;;;;;31.14;23.34;99438.36;109494;1253;76021;-62
2023/05/22 07:43:11;;;;;;;;;;;;;;;31.25;23.59;99440.55;109488;1253;67417;-64
2023/05/22 07:45:38;;;;;;;;;;;;;;;31.41;23.06;99438.19;109220;1253;71044;-63
2023/05/22 07:48:06;;;;;;;;;;;;;;;31.49;23.00;99435.30;109226;1254;60503;-63
2023/05/22 07:50:34;;;;;;;;;;;;;;;31.54;22.79;99434.68;109236;1253;58972;-63
2023/05/22 07:53:03;;;;;;;;;;;;;;;31.63;22.42;99436.02;109413;1252;76624;-64
2023/05/22 07:55:31;;;;;;;;;;;;;;;31.54;21.25;99435.66;109241;1256;68337;-63
2023/05/22 07:57:58;;;;;;;;;;;;;;;31.17;21.86;99436.05;109371;1253;73160;-62
2023/05/22 08:00:31;;;;;;;;;;;;;;;31.19;22.76;99431.45;109356;1253;61815;-64
2023/05/22 08:02:58;;;;;;;;;;;;;;;31.49;22.50;99425.59;109508;1254;61849;-62
2023/05/22 08:05:25;;;;;;;;;;;;;;;31.71;22.63;99427.41;109403;1253;75930;-61
2023/05/22 08:07:52;;;;;;;;;;;;;;;32.03;22.23;99427.67;109412;1253;68179;-64
2023/05/22 08:10:19;;;;;;;;;;;;;;;32.26;21.83;99421.00;109425;1253;73538;-63
2023/05/22 08:12:46;;;;;;;;;;;;;;;32.39;21.88;99421.02;109382;1256;60468;-65
2023/05/22 08:15:13;;;;;;;;;;;;;;;32.27;21.78;99423.68;109370;1253;60746;-63
2023/05/22 08:17:40;;;;;;;;;;;;;;;31.70;21.71;99421.92;109437;1253;75985;-63
2023/05/22 08:20:07;;;;;;;;;;;;;;;30.96;22.03;99423.27;109441;1253;66833;-63
2023/05/22 08:22:36;;;;;;;;;;;;;;;30.55;22.77;99424.09;109394;1252;71580;-63
2023/05/22 08:25:03;;;;;;;;;;;;;;;30.76;22.92;99418.10;109397;1253;62239;-63
2023/05/22 08:27:30;;;;;;;;;;;;;;;31.11;22.43;99412.20;109553;1253;59036;-63
2023/05/22 08:29:57;;;;;;;;;;;;;;;31.29;21.95;99409.19;109529;1253;75963;-63
2023/05/22 08:32:23;;;;;;;;;;;;;;;31.48;22.36;99405.61;109560;1253;68980;-62
2023/05/22 08:34:50;;;;;;;;;;;;;;;31.73;22.08;99405.20;109457;1253;74826;-61
2023/05/22 08:37:17;;;;;;;;;;;;;;;31.92;21.56;99403.94;109407;1253;60357;-62
2023/05/22 08:39:43;;;;;;;;;;;;;;;31.70;21.39;99402.80;109449;1253;58902;-62
2023/05/22 08:42:10;;;;;;;;;;;;;;;31.70;21.55;99397.59;109425;1253;75375;-63
2023/05/22 08:44:37;;;;;;;;;;;;;;;31.83;21.77;99395.76;109403;1253;68084;-62
2023/05/22 08:47:08;;;;;;;;;;;;;;;32.17;21.40;99399.05;109240;1253;71864;-63
2023/05/22 08:49:36;;;;;;;;;;;;;;;32.29;21.11;99390.77;109406;1253;59496;-63
2023/05/22 08:52:05;;;;;;;;;;;;;;;31.76;21.00;99393.20;109357;1253;61352;-63
2023/05/22 08:54:31;;;;;;;;;;;;;;;31.12;21.36;99394.55;109259;1253;77095;-63
2023/05/22 08:56:58;;;;;;;;;;;;;;;30.47;21.91;99393.61;109327;1252;70143;-64
2023/05/22 08:59:25;;;;;;;;;;;;;;;30.21;22.49;99393.48;109486;1253;71448;-63
2023/05/22 09:01:52;;;;;;;;;;;;;;;29.87;22.48;99403.66;109468;1253;61896;-64
2023/05/22 09:04:21;;;;;;;;;;;;;;;29.57;22.66;99403.48;109268;1254;62795;-62
2023/05/22 09:06:49;;;;;;;;;;;;;;;29.24;22.73;99397.52;109354;1254;74854;-66
2023/05/22 09:09:16;;;;;;;;;;;;;;;29.42;22.88;99395.63;109392;1253;69702;-62
2023/05/22 09:11:42;;;;;;;;;;;;;;;29.40;22.85;99388.42;109371;1253;73570;-62
2023/05/22 09:14:10;;;;;;;;;;;;;;;29.58;22.55;99389.77;109507;1254;63107;-64
2023/05/22 09:16:47;;;;;;;;;;;;;;;29.26;23.15;99393.58;109379;1253;61421;-63
2023/05/22 09:19:14;;;;;;;;;;;;;;;28.70;23.57;99398.36;109423;1254;74315;-61
2023/05/22 09:21:43;;;;;;;;;;;;;;;28.09;24.11;99394.09;109374;1254;69395;-64
2023/05/22 09:24:10;;;;;;;;;;;;;;;27.45;24.37;99400.53;109364;1253;74723;-64
2023/05/22 09:26:37;;;;;;;;;;;;;;;26.80;24.43;99397.23;109391;1253;60481;-64
2023/05/22 09:29:07;;;;;;;;;;;;;;;26.30;25.07;99389.91;109388;1253;60780;-64
2023/05/22 09:31:40;;;;;;;;;;;;;;;25.98;25.95;99387.56;109345;1253;76605;-63
2023/05/22 09:34:09;;;;;;;;;;;;;;;26.40;26.57;99383.34;109291;1253;67175;-64
2023/05/22 09:36:35;;;;;;;;;;;;;;;27.37;26.01;99381.61;109350;1253;72987;-62
2023/05/22 09:39:03;;;;;;;;;;;;;;;28.46;24.74;99370.23;109357;1254;61245;-63
2023/05/22 09:41:32;;;;;;;;;;;;;;;29.44;24.16;99364.95;109408;1253;59489;-63
2023/05/22 09:43:59;;;;;;;;;;;;;;;30.18;23.26;99360.17;109400;1253;76760;-63
2023/05/22 09:46:28;;;;;;;;;;;;;;;31.03;22.56;99356.98;109335;1253;66788;-66
2023/05/22 09:48:54;;;;;;;;;;;;;;;31.76;21.67;99352.27;109386;1253;74796;-63
2023/05/22 09:51:25;;;;;;;;;;;;;;;32.25;21.00;99349.97;109367;1253;61092;-63
2023/05/22 09:53:53;;;;;;;;;;;;;;;32.61;20.48;99350.57;109359;1253;62173;-64
2023/05/22 09:56:22;;;;;;;;;;;;;;;33.02;20.53;99349.23;109504;1252;76236;-64
2023/05/22 09:59:05;;;;;;;;;;;;;;;33.66;19.69;99339.61;109503;1253;67755;-64
2023/05/22 10:01:32;;;;;;;;;;;;;;;34.01;19.21;99339.59;109288;1253;72654;-64
2023/05/22 10:03:59;;;;;;;;;;;;;;;33.46;19.10;99340.61;109449;1253;60168;-63
2023/05/22 10:06:26;;;;;;;;;;;;;;;32.84;19.81;99334.98;109397;1253;60058;-63
2023/05/22 10:08:57;;;;;;;;;;;;;;;33.09;20.00;99332.48;109301;1252;75068;-63
2023/05/22 10:11:24;;;;;;;;;;;;;;;32.78;20.27;99329.85;109427;1254;69295;-61
2023/05/22 10:13:51;;;;;;;;;;;;;;;31.82;21.12;99332.66;109377;1254;71301;-64
2023/05/22 10:16:18;;;;;;;;;;;;;;;31.14;21.62;99339.27;109502;1254;59313;-63
2023/05/22 10:18:45;;;;;;;;;;;;;;;31.58;20.61;99323.55;109558;1254;59971;-62
2023/05/22 10:21:12;;;;;;;;;;;;;;;32.31;20.34;99320.35;109425;1253;73678;-61
2023/05/22 10:23:39;;;;;;;;;;;;;;;32.92;20.03;99318.27;109533;1254;68734;-62
2023/05/22 10:26:05;;;;;;;;;;;;;;;33.34;19.43;99317.77;109505;1254;72917;-62
2023/05/22 10:28:41;;;;;;;;;;;;;;;33.42;18.79;99320.05;109476;1254;62459;-64
2023/05/22 10:31:13;;;;;;;;;;;;;;;33.43;18.91;99315.73;109267;1254;62149;-63
2023/05/22 10:33:59;;;;;;;;;;;;;;;33.18;18.47;99309.14;109308;1254;73049;-65
2023/05/22 10:36:35;;;;;;;;;;;;;;;32.65;18.72;99310.73;109380;1253;69476;-64
2023/05/22 10:39:03;;;;;;;;;;;;;;;31.84;19.90;99312.25;109409;1253;74070;-62
2023/05/22 10:41:30;;;;;;;;;;;;;;;31.13;21.09;99320.18;109512;1254;59510;-64
2023/05/22 10:43:57;;;;;;;;;;;;;;;30.48;21.66;99322.28;109408;1253;60945;-64
2023/05/22 10:46:24;;;;;;;;;;;;;;;29.79;22.30;99315.77;109504;1253;73551;-62
2023/05/22 10:48:51;;;;;;;;;;;;;;;29.02;22.72;99319.35;109466;1252;69098;-62
2023/05/22 10:51:18;;;;;;;;;;;;;;;28.40;23.21;99315.80;109506;1253;74051;-64
2023/05/22 10:53:48;;;;;;;;;;;;;;;27.90;24.11;99315.24;109478;1254;59996;-63
2023/05/22 10:56:15;;;;;;;;;;;;;;;27.33;24.78;99322.96;109303;1253;61392;-62
2023/05/22 10:58:43;;;;;;;;;;;;;;;26.87;25.42;99314.98;109415;1253;75218;-63
2023/05/22 11:01:14;;;;;;;;;;;;;;;26.47;26.16;99315.96;109438;1253;70235;-63
2023/05/22 11:03:54;;;;;;;;;;;;;;;26.21;27.07;99321.00;109485;1254;71569;-62
2023/05/22 11:06:30;;;;;;;;;;;;;;;26.12;26.57;99314.17;109408;1253;61797;-61
2023/05/22 11:08:57;;;;;;;;;;;;;;;25.99;26.98;99309.52;109511;1252;62531;-63
2023/05/22 11:11:25;;;;;;;;;;;;;;;25.76;27.00;99305.65;109544;1253;76023;-62
2023/05/22 11:13:52;;;;;;;;;;;;;;;25.57;26.94;99305.04;109537;1253;70302;-62
2023/05/22 11:16:19;;;;;;;;;;;;;;;25.36;26.97;99305.10;109545;1257;73743;-61
2023/05/22 11:18:45;;;;;;;;;;;;;;;25.26;27.18;99307.33;109482;1254;60025;-61
2023/05/22 11:21:15;;;;;;;;;;;;;;;25.23;26.36;99302.03;109458;1253;60177;-63
2023/05/22 11:23:42;;;;;;;;;;;;;;;25.08;26.23;99296.67;109493;1253;76569;-61
2023/05/22 11:26:19;;;;;;;;;;;;;;;24.84;26.59;99293.66;109454;1253;67712;-61
2023/05/22 11:28:50;;;;;;;;;;;;;;;24.76;26.74;99290.28;109483;1253;72321;-61
2023/05/22 11:31:17;;;;;;;;;;;;;;;24.82;26.89;99285.44;109434;1253;61731;-63
2023/05/22 11:33:47;;;;;;;;;;;;;;;24.88;26.96;99285.06;109543;1253;60803;-64
2023/05/22 11:36:16;;;;;;;;;;;;;;;24.86;27.35;99285.17;109530;1254;75246;-63
2023/05/22 11:38:43;;;;;;;;;;;;;;;24.83;27.61;99286.91;109516;1252;68893;-64
2023/05/22 11:41:10;;;;;;;;;;;;;;;24.80;27.33;99287.39;109531;1253;74019;-64
2023/05/22 11:43:37;;;;;;;;;;;;;;;24.78;27.15;99290.85;109512;1257;61865;-64
2023/05/22 11:46:07;;;;;;;;;;;;;;;24.62;27.70;99290.88;109543;1256;60992;-65
2023/05/22 11:48:35;;;;;;;;;;;;;;;24.47;27.59;99289.23;109528;1253;75423;-66
2023/05/22 11:51:02;;;;;;;;;;;;;;;24.32;27.53;99289.50;109502;1253;68810;-65
2023/05/22 11:53:30;;;;;;;;;;;;;;;24.19;27.67;99288.86;109535;1254;73826;-64
2023/05/22 11:56:04;;;;;;;;;;;;;;;24.04;27.92;99287.27;109510;1252;61708;-65
2023/05/22 11:58:31;;;;;;;;;;;;;;;23.84;28.08;99286.76;109558;1254;58919;-63
2023/05/22 12:01:02;;;;;;;;;;;;;;;23.70;28.42;99281.00;109524;1253;74072;-63
2023/05/22 12:03:29;;;;;;;;;;;;;;;23.67;29.16;99281.69;109532;1254;68077;-61
2023/05/22 12:05:57;;;;;;;;;;;;;;;23.72;29.50;99279.11;109426;1258;71089;-62
2023/05/22 12:08:24;;;;;;;;;;;;;;;23.80;29.00;99277.65;109477;1253;58960;-62
2023/05/22 12:10:52;;;;;;;;;;;;;;;23.79;28.98;99275.96;109300;1254;60073;-62
2023/05/22 12:13:26;;;;;;;;;;;;;;;23.69;29.06;99271.38;109567;1253;74589;-63
2023/05/22 12:15:55;;;;;;;;;;;;;;;23.59;28.93;99277.01;109524;1254;67597;-62
2023/05/22 12:18:22;;;;;;;;;;;;;;;23.44;28.92;99275.46;109522;1254;71458;-64
2023/05/22 12:20:55;;;;;;;;;;;;;;;23.30;29.17;99273.26;109529;1254;59516;-62
2023/05/22 12:23:26;;;;;;;;;;;;;;;23.22;28.99;99275.28;109498;1254;58965;-61
2023/05/22 12:25:57;;;;;;;;;;;;;;;23.18;29.24;99274.27;109420;1253;60480;-62
2023/05/22 12:28:25;;;;;;;;;;;;;;;23.14;29.27;99267.66;109430;1252;67713;-61
2023/05/22 12:30:53;;;;;;;;;;;;;;;23.13;29.51;99269.66;109523;1254;71415;-61
2023/05/22 12:33:27;;;;;;;;;;;;;;;23.10;29.63;99266.16;109539;1253;60108;-61
2023/05/22 12:35:57;;;;;;;;;;;;;;;23.01;29.69;99265.04;109536;1253;59783;-61
2023/05/22 12:38:25;;;;;;;;;;;;;;;22.97;30.08;99276.45;109568;1253;73401;-61
2023/05/22 12:40:53;;;;;;;;;;;;;;;22.88;29.54;99273.32;109540;1253;67869;-64
2023/05/22 12:43:24;;;;;;;;;;;;;;;22.76;29.55;99265.41;109504;1257;70749;-63